Time;durP1;ratioP1;P1;durP2;ratioP2;P2;SDS_P1;SDS_P2;PMS_P1;PMS_P2;Temp;Humidity;BMP_temperature;BMP_pressure;BME280_temperature;BME280_humidity;BME280_pressure;Samples;Min_cycle;Max_cycle;Signal;HPM_P1;HPM_P2
2022/04/30 00:02:09;;;;;;;4.78;3.40;;;16.10;99.90;;;;;;5084757;28;20029;-75
2022/04/30 00:04:41;;;;;;;6.05;4.38;;;16.10;99.90;;;;;;5078251;28;20024;-75
2022/04/30 00:07:08;;;;;;;6.25;4.25;;;16.10;99.90;;;;;;5074492;28;20111;-75
2022/04/30 00:09:34;;;;;;;5.70;3.90;;;16.10;99.90;;;;;;5068190;28;20063;-76
2022/04/30 00:12:00;;;;;;;5.47;3.83;;;16.10;99.90;;;;;;5083812;28;20020;-75
2022/04/30 00:14:27;;;;;;;5.72;3.88;;;16.10;99.90;;;;;;5066918;28;20051;-75
2022/04/30 00:16:54;;;;;;;6.65;4.30;;;16.00;99.90;;;;;;5072282;28;20084;-75
2022/04/30 00:19:21;;;;;;;5.95;4.60;;;16.00;99.90;;;;;;5072645;28;20032;-75
2022/04/30 00:21:50;;;;;;;6.25;3.97;;;15.90;99.90;;;;;;5055739;28;20021;-75
2022/04/30 00:24:16;;;;;;;5.70;3.63;;;16.00;99.90;;;;;;5067832;28;20040;-75
2022/04/30 00:26:43;;;;;;;6.10;4.40;;;15.90;99.90;;;;;;5086701;28;20029;-75
2022/04/30 00:29:09;;;;;;;4.93;3.85;;;16.00;99.90;;;;;;5082327;28;20024;-75
2022/04/30 00:31:35;;;;;;;5.07;3.50;;;15.90;99.90;;;;;;5071352;28;20021;-75
2022/04/30 00:34:02;;;;;;;6.03;3.25;;;16.00;99.90;;;;;;5066266;28;20083;-75
2022/04/30 00:36:28;;;;;;;4.90;3.70;;;16.00;99.90;;;;;;5062279;28;20608;-75
2022/04/30 00:38:54;;;;;;;3.60;3.05;;;16.00;99.90;;;;;;5091438;28;20024;-75
2022/04/30 00:41:21;;;;;;;4.15;3.65;;;16.00;99.90;;;;;;5066805;28;20024;-75
2022/04/30 00:43:53;;;;;;;5.90;3.63;;;15.90;99.90;;;;;;5084270;28;20035;-76
2022/04/30 00:46:20;;;;;;;4.63;3.13;;;15.90;99.90;;;;;;5085134;28;20019;-75
2022/04/30 00:48:46;;;;;;;4.10;3.63;;;15.80;99.90;;;;;;5085406;28;20016;-75
2022/04/30 00:51:14;;;;;;;9.10;4.00;;;15.80;99.90;;;;;;5069431;28;20035;-75
2022/04/30 00:53:43;;;;;;;4.47;3.33;;;15.80;99.90;;;;;;5063541;28;20040;-76
2022/04/30 00:56:12;;;;;;;3.92;3.42;;;15.90;99.90;;;;;;5079870;28;20052;-75
2022/04/30 00:58:41;;;;;;;4.57;3.80;;;15.80;99.90;;;;;;5083227;28;20024;-75
2022/04/30 01:01:07;;;;;;;5.28;4.03;;;15.70;99.90;;;;;;5074017;28;20020;-75
2022/04/30 01:03:33;;;;;;;4.28;3.30;;;15.70;99.90;;;;;;5075941;28;20020;-75
2022/04/30 01:06:02;;;;;;;3.58;3.28;;;15.80;99.90;;;;;;5060545;28;20533;-75
2022/04/30 01:08:28;;;;;;;4.82;4.07;;;15.70;99.90;;;;;;5069986;28;20100;-75
2022/04/30 01:11:00;;;;;;;3.88;3.47;;;15.80;99.90;;;;;;5077470;28;20020;-75
2022/04/30 01:13:28;;;;;;;4.07;3.60;;;15.70;99.90;;;;;;5072548;28;20089;-75
2022/04/30 01:15:58;;;;;;;5.05;3.53;;;15.70;99.90;;;;;;5070079;28;20044;-75
2022/04/30 01:18:26;;;;;;;6.75;4.43;;;15.60;99.90;;;;;;5069343;28;20434;-75
2022/04/30 01:20:55;;;;;;;6.03;3.83;;;15.60;99.90;;;;;;5059074;28;20025;-75
2022/04/30 01:23:22;;;;;;;4.40;3.67;;;15.60;99.90;;;;;;5078943;28;20025;-75
2022/04/30 01:25:49;;;;;;;4.65;3.70;;;15.60;99.90;;;;;;5078639;28;20035;-75
2022/04/30 01:28:18;;;;;;;6.53;3.75;;;15.60;99.90;;;;;;5075628;28;20028;-75
2022/04/30 01:30:44;;;;;;;5.03;4.07;;;15.60;99.90;;;;;;5072646;28;20042;-75
2022/04/30 01:38:40;;;;;;;4.93;3.67;;;15.60;99.90;;;;;;5082589;28;20561;-75
2022/04/30 01:41:06;;;;;;;4.20;3.80;;;15.40;99.90;;;;;;5080834;28;20075;-75
2022/04/30 01:43:33;;;;;;;6.03;3.97;;;15.40;99.90;;;;;;5071160;28;20027;-75
2022/04/30 01:46:03;;;;;;;4.95;3.88;;;15.40;99.90;;;;;;5078862;28;20086;-75
2022/04/30 01:48:29;;;;;;;6.10;4.13;;;15.40;99.90;;;;;;5079679;28;20170;-75
2022/04/30 01:50:56;;;;;;;8.77;4.28;;;15.30;99.90;;;;;;5085363;28;20036;-75
2022/04/30 01:53:21;;;;;;;6.18;3.83;;;15.30;99.90;;;;;;5074633;28;20019;-75
2022/04/30 01:55:47;;;;;;;7.93;3.95;;;15.20;99.90;;;;;;5075523;28;20023;-75
2022/04/30 01:58:13;;;;;;;6.13;4.25;;;15.20;99.90;;;;;;5078263;28;20028;-75
2022/04/30 02:00:39;;;;;;;4.72;3.72;;;15.20;99.90;;;;;;5080121;28;20028;-75
2022/04/30 02:03:08;;;;;;;5.93;4.50;;;15.20;99.90;;;;;;5089651;28;20102;-75
2022/04/30 02:05:35;;;;;;;6.13;4.03;;;15.10;99.90;;;;;;5085558;28;20040;-75
2022/04/30 02:08:06;;;;;;;6.75;4.50;;;15.20;99.90;;;;;;5072140;28;20025;-75
2022/04/30 02:10:36;;;;;;;4.75;4.00;;;15.20;99.90;;;;;;5074174;28;20020;-75
2022/04/30 02:13:03;;;;;;;5.80;4.22;;;15.20;99.90;;;;;;5071273;28;20046;-76
2022/04/30 02:15:32;;;;;;;6.85;4.07;;;15.10;99.90;;;;;;5069946;28;20112;-75
2022/04/30 02:17:59;;;;;;;4.85;3.97;;;15.00;99.90;;;;;;5078632;28;20021;-75
2022/04/30 02:20:27;;;;;;;6.88;4.30;;;15.00;99.90;;;;;;5068553;28;20021;-75
2022/04/30 02:22:56;;;;;;;7.47;4.40;;;14.90;99.90;;;;;;5077111;28;20025;-75
2022/04/30 02:25:23;;;;;;;8.48;4.60;;;14.90;99.90;;;;;;5070333;28;20027;-75
2022/04/30 02:27:53;;;;;;;6.63;4.75;;;14.90;99.90;;;;;;5075033;28;20067;-75
2022/04/30 02:30:21;;;;;;;6.63;4.93;;;14.80;99.90;;;;;;5079843;28;20060;-75
2022/04/30 02:33:00;;;;;;;5.95;4.72;;;14.90;99.90;;;;;;5055136;28;20514;-75
2022/04/30 02:35:31;;;;;;;6.07;4.35;;;14.90;99.90;;;;;;5068547;28;20032;-75
2022/04/30 02:38:00;;;;;;;5.40;4.30;;;14.90;99.90;;;;;;5080478;28;20023;-75
2022/04/30 02:40:28;;;;;;;7.10;4.53;;;14.90;99.90;;;;;;5074731;28;20035;-75
2022/04/30 02:42:54;;;;;;;7.60;4.18;;;14.90;99.90;;;;;;5077643;28;20020;-75
2022/04/30 02:45:23;;;;;;;4.82;4.32;;;14.90;99.90;;;;;;5082627;28;20039;-75
2022/04/30 02:47:53;;;;;;;5.10;4.40;;;14.90;99.90;;;;;;5082015;28;20044;-75
2022/04/30 02:50:22;;;;;;;4.03;3.42;;;14.90;99.90;;;;;;5067312;28;20101;-75
2022/04/30 02:52:49;;;;;;;5.03;4.53;;;14.80;99.90;;;;;;5068310;28;20029;-75
2022/04/30 02:55:15;;;;;;;6.90;4.95;;;14.80;99.90;;;;;;5069955;28;20016;-75
2022/04/30 03:00:34;;;;;;;5.57;4.32;;;14.70;99.90;;;;;;5064148;28;20050;-75
2022/04/30 03:03:00;;;;;;;6.47;4.85;;;14.80;99.90;;;;;;5089430;28;20070;-75
2022/04/30 03:05:26;;;;;;;5.53;4.43;;;14.70;99.90;;;;;;5078659;28;20517;-75
2022/04/30 03:07:53;;;;;;;6.30;4.57;;;14.70;99.90;;;;;;5076352;28;20032;-75
2022/04/30 03:10:20;;;;;;;6.03;4.20;;;14.70;99.90;;;;;;5070679;28;20017;-75
2022/04/30 03:12:46;;;;;;;8.50;5.15;;;14.70;99.90;;;;;;5060152;28;20064;-75
2022/04/30 03:15:11;;;;;;;7.28;4.70;;;14.60;99.90;;;;;;5076360;28;20048;-75
2022/04/30 03:23:06;;;;;;;5.85;5.25;;;14.50;99.90;;;;;;5075930;28;20063;-75
2022/04/30 03:25:32;;;;;;;7.57;5.60;;;14.50;99.90;;;;;;5062105;28;20029;-75
2022/04/30 03:27:58;;;;;;;6.47;4.90;;;14.50;99.90;;;;;;5073763;28;20493;-75
2022/04/30 03:30:23;;;;;;;6.13;5.53;;;14.50;99.90;;;;;;5074798;28;20073;-74
2022/04/30 03:32:50;;;;;;;6.22;5.03;;;14.40;99.90;;;;;;5057116;28;20036;-75
2022/04/30 03:35:15;;;;;;;6.97;5.47;;;14.40;99.90;;;;;;5068470;28;20487;-75
2022/04/30 03:37:41;;;;;;;8.32;5.40;;;14.40;99.90;;;;;;5077229;28;20020;-75
2022/04/30 03:40:07;;;;;;;7.38;4.97;;;14.40;99.90;;;;;;5074127;28;20013;-75
2022/04/30 03:42:33;;;;;;;9.50;5.18;;;14.40;99.90;;;;;;5079845;28;20137;-75
2022/04/30 03:45:04;;;;;;;7.78;5.80;;;14.30;99.90;;;;;;5067366;28;20020;-76
2022/04/30 03:47:30;;;;;;;7.30;5.85;;;14.30;99.90;;;;;;5073027;28;20035;-75
2022/04/30 03:49:56;;;;;;;9.10;6.93;;;14.30;99.90;;;;;;5075261;28;20025;-75
2022/04/30 03:52:22;;;;;;;8.90;6.50;;;14.30;99.90;;;;;;5082691;28;20652;-75
2022/04/30 03:54:47;;;;;;;8.43;6.68;;;14.30;99.90;;;;;;5080205;28;20035;-75
2022/04/30 03:57:13;;;;;;;10.63;7.57;;;14.30;99.90;;;;;;5081884;28;20051;-75
2022/04/30 03:59:39;;;;;;;10.15;6.43;;;14.30;99.90;;;;;;5083383;28;20399;-75
2022/04/30 04:02:06;;;;;;;9.15;6.88;;;14.30;99.90;;;;;;5086984;28;20540;-74
2022/04/30 04:04:33;;;;;;;7.55;5.85;;;14.20;99.90;;;;;;5074667;28;20433;-74
2022/04/30 04:06:59;;;;;;;9.35;6.63;;;14.30;99.90;;;;;;5064919;28;20032;-75
2022/04/30 04:09:24;;;;;;;12.30;6.80;;;14.30;99.90;;;;;;5062669;28;20032;-75
2022/04/30 04:11:50;;;;;;;10.07;6.38;;;14.30;99.90;;;;;;5080082;28;20028;-75
2022/04/30 04:19:44;;;;;;;8.80;6.32;;;14.20;99.90;;;;;;5072109;28;20536;-75
2022/04/30 04:22:10;;;;;;;9.77;6.78;;;14.20;99.90;;;;;;5076814;28;20450;-75
2022/04/30 04:27:20;;;;;;;9.27;6.78;;;14.10;99.90;;;;;;5084843;28;20283;-75
2022/04/30 04:29:46;;;;;;;9.85;6.80;;;14.00;99.90;;;;;;5076400;28;20080;-75
2022/04/30 04:32:13;;;;;;;10.43;7.20;;;14.10;99.90;;;;;;5083396;28;20039;-75
2022/04/30 04:34:38;;;;;;;9.52;7.07;;;14.10;99.90;;;;;;5085318;28;20031;-75
2022/04/30 04:37:04;;;;;;;7.63;6.25;;;14.10;99.90;;;;;;5069770;28;20489;-75
2022/04/30 04:39:30;;;;;;;10.05;6.68;;;14.10;99.90;;;;;;5082311;28;20020;-75
2022/04/30 04:41:56;;;;;;;9.48;6.90;;;14.20;99.90;;;;;;5082777;28;20021;-75
2022/04/30 04:44:22;;;;;;;8.10;5.78;;;14.20;99.90;;;;;;5083277;28;20065;-75
2022/04/30 04:46:48;;;;;;;10.38;7.00;;;14.10;99.90;;;;;;5080474;28;20028;-75
2022/04/30 04:49:15;;;;;;;8.73;6.78;;;14.00;99.90;;;;;;5078436;28;20174;-75
2022/04/30 04:51:40;;;;;;;8.98;6.40;;;14.10;99.90;;;;;;5072045;28;20021;-75
2022/04/30 04:54:07;;;;;;;11.32;6.72;;;14.10;99.90;;;;;;5079544;28;20070;-75
2022/04/30 04:56:33;;;;;;;10.77;6.72;;;14.10;99.90;;;;;;5083106;28;20041;-75
2022/04/30 04:59:00;;;;;;;8.65;6.40;;;14.10;99.90;;;;;;5074022;28;20024;-75
2022/04/30 05:01:26;;;;;;;7.63;5.72;;;14.10;99.90;;;;;;5080465;28;20035;-75
2022/04/30 05:03:51;;;;;;;7.38;5.90;;;14.00;99.90;;;;;;5081195;28;20788;-75
2022/04/30 05:06:17;;;;;;;8.38;5.88;;;14.00;99.90;;;;;;5086035;28;20032;-75
2022/04/30 05:08:43;;;;;;;8.30;6.10;;;14.00;99.90;;;;;;5057928;28;20032;-75
2022/04/30 05:11:10;;;;;;;9.77;6.47;;;14.00;99.90;;;;;;5082436;28;20040;-75
2022/04/30 05:13:35;;;;;;;6.97;5.40;;;14.00;99.90;;;;;;5079494;28;20021;-75
2022/04/30 05:16:02;;;;;;;9.45;6.30;;;13.90;99.90;;;;;;5079822;28;20024;-75
2022/04/30 05:18:27;;;;;;;6.93;5.63;;;14.00;99.90;;;;;;5081769;28;20097;-75
2022/04/30 05:20:53;;;;;;;8.27;5.72;;;14.10;99.90;;;;;;5067677;28;20057;-74
2022/04/30 05:23:19;;;;;;;7.45;5.35;;;13.90;99.90;;;;;;5089583;28;20036;-75
2022/04/30 05:25:45;;;;;;;8.85;5.78;;;13.90;99.90;;;;;;5080101;28;20031;-75
2022/04/30 05:28:11;;;;;;;9.07;5.63;;;14.00;99.90;;;;;;5078093;28;20508;-75
2022/04/30 05:30:37;;;;;;;7.28;5.20;;;14.00;99.90;;;;;;5076620;28;20024;-74
2022/04/30 05:33:03;;;;;;;5.22;4.70;;;14.00;99.90;;;;;;5078994;28;20033;-75
2022/04/30 05:35:29;;;;;;;6.80;5.88;;;14.00;99.90;;;;;;5084407;28;20559;-75
2022/04/30 05:37:54;;;;;;;5.90;5.30;;;14.10;99.90;;;;;;5086086;28;20016;-75
2022/04/30 05:40:20;;;;;;;8.77;5.63;;;14.00;99.90;;;;;;5075249;28;20106;-75
2022/04/30 05:42:46;;;;;;;6.40;5.18;;;14.00;99.90;;;;;;5082614;28;20079;-75
2022/04/30 05:45:12;;;;;;;5.75;4.32;;;13.90;99.90;;;;;;5085407;28;20497;-75
2022/04/30 05:47:38;;;;;;;8.55;6.18;;;13.90;99.90;;;;;;5091320;28;20034;-75
2022/04/30 05:50:09;;;;;;;7.85;5.43;;;13.90;99.90;;;;;;5077031;28;20035;-75
2022/04/30 05:52:35;;;;;;;5.68;4.97;;;13.80;99.90;;;;;;5072367;28;20016;-75
2022/04/30 05:55:04;;;;;;;6.97;5.63;;;13.80;99.90;;;;;;5073627;28;20081;-75
2022/04/30 05:57:31;;;;;;;7.90;5.47;;;13.80;99.90;;;;;;5078104;28;20087;-75
2022/04/30 05:59:58;;;;;;;8.90;6.55;;;13.80;99.90;;;;;;5082671;28;20032;-75
2022/04/30 06:02:24;;;;;;;5.57;4.90;;;13.80;99.90;;;;;;5064160;28;20029;-75
2022/04/30 06:04:50;;;;;;;8.23;5.85;;;13.90;99.90;;;;;;5078809;28;20031;-75
2022/04/30 06:07:16;;;;;;;8.40;5.47;;;13.90;99.90;;;;;;5071304;28;20123;-75
2022/04/30 06:09:42;;;;;;;9.13;5.72;;;14.00;99.90;;;;;;5060427;28;20108;-75
2022/04/30 06:12:09;;;;;;;7.22;5.85;;;13.90;99.90;;;;;;5078799;28;20108;-75
2022/04/30 06:14:34;;;;;;;7.20;5.60;;;14.10;99.90;;;;;;5073619;28;20109;-75
2022/04/30 06:17:00;;;;;;;6.00;5.07;;;14.10;99.90;;;;;;5082850;28;20163;-75
2022/04/30 06:19:26;;;;;;;9.20;6.18;;;14.30;99.90;;;;;;5081589;28;20055;-75
2022/04/30 06:21:53;;;;;;;5.85;4.70;;;14.20;99.90;;;;;;5068943;28;20069;-75
2022/04/30 06:24:19;;;;;;;5.95;5.35;;;14.40;99.90;;;;;;5072248;28;20020;-75
2022/04/30 06:26:44;;;;;;;7.30;5.30;;;14.40;99.90;;;;;;5076472;28;20421;-75
2022/04/30 06:29:11;;;;;;;8.00;6.60;;;14.20;99.90;;;;;;5071956;28;20028;-75
2022/04/30 06:31:38;;;;;;;8.85;6.65;;;14.20;99.90;;;;;;5082749;28;20035;-75
2022/04/30 06:34:03;;;;;;;10.80;7.05;;;14.20;99.90;;;;;;5077137;28;20124;-75
2022/04/30 06:36:29;;;;;;;8.93;6.10;;;14.20;99.90;;;;;;5080195;28;20195;-75
2022/04/30 06:38:55;;;;;;;12.05;7.43;;;14.40;99.90;;;;;;5060242;28;20099;-75
2022/04/30 06:41:21;;;;;;;9.90;7.38;;;14.30;99.90;;;;;;5083315;28;20024;-75
2022/04/30 06:43:49;;;;;;;15.43;10.23;;;14.40;99.90;;;;;;5068274;28;20447;-75
2022/04/30 06:46:16;;;;;;;20.55;13.48;;;14.30;99.90;;;;;;5070730;28;20060;-75
2022/04/30 06:48:42;;;;;;;18.80;13.07;;;14.40;99.90;;;;;;5065284;28;20106;-75
2022/04/30 06:51:07;;;;;;;19.48;12.75;;;14.50;99.90;;;;;;5059278;28;20522;-75
2022/04/30 06:59:09;;;;;;;11.55;9.43;;;14.30;99.90;;;;;;5081853;28;20039;-75
2022/04/30 07:04:23;;;;;;;12.43;9.00;;;14.20;99.90;;;;;;5066652;28;20039;-75
2022/04/30 07:06:50;;;;;;;10.48;8.55;;;14.30;99.90;;;;;;5068056;28;20036;-75
2022/04/30 07:09:16;;;;;;;11.23;8.35;;;14.40;99.90;;;;;;5058349;28;20032;-75
2022/04/30 07:11:42;;;;;;;10.77;8.15;;;14.40;99.90;;;;;;5066380;28;20075;-74
2022/04/30 07:14:09;;;;;;;12.40;9.15;;;14.50;99.90;;;;;;5060268;28;20017;-75
2022/04/30 07:16:34;;;;;;;11.00;8.70;;;14.60;99.90;;;;;;5067124;28;20047;-75
2022/04/30 07:19:01;;;;;;;9.57;8.20;;;14.70;99.90;;;;;;5066062;28;20024;-74
2022/04/30 07:21:28;;;;;;;12.10;8.77;;;14.80;99.90;;;;;;5069149;28;20028;-75
2022/04/30 07:23:54;;;;;;;9.50;8.10;;;14.90;99.90;;;;;;5070080;28;20025;-76
2022/04/30 07:26:20;;;;;;;11.98;7.63;;;14.90;99.90;;;;;;5070451;28;20029;-76
2022/04/30 07:28:46;;;;;;;10.70;8.40;;;15.10;99.90;;;;;;5075240;28;20028;-76
2022/04/30 07:31:12;;;;;;;9.10;6.82;;;15.00;99.90;;;;;;5063048;28;20040;-76
2022/04/30 07:33:38;;;;;;;15.52;8.13;;;15.00;99.90;;;;;;5066619;28;20024;-76
2022/04/30 07:36:05;;;;;;;10.38;8.07;;;15.20;99.90;;;;;;5071629;28;20062;-77
2022/04/30 07:38:31;;;;;;;13.25;9.10;;;15.20;99.90;;;;;;5068097;28;20095;-76
2022/04/30 07:40:57;;;;;;;11.38;9.25;;;14.90;99.90;;;;;;5068884;28;20017;-76
2022/04/30 07:43:23;;;;;;;11.18;9.10;;;15.10;99.90;;;;;;5059986;28;20029;-76
2022/04/30 07:45:48;;;;;;;14.55;9.95;;;15.60;99.90;;;;;;5064753;28;20028;-76
2022/04/30 07:48:14;;;;;;;11.82;9.52;;;15.80;99.90;;;;;;5068184;28;20033;-76
2022/04/30 07:50:43;;;;;;;13.05;10.05;;;15.70;99.90;;;;;;5069616;28;20024;-76
2022/04/30 07:53:09;;;;;;;11.93;9.02;;;16.00;99.90;;;;;;5068821;28;20024;-76
2022/04/30 07:55:35;;;;;;;13.07;9.82;;;16.00;99.90;;;;;;5069195;28;20028;-76
2022/04/30 07:58:02;;;;;;;12.38;9.50;;;16.00;99.90;;;;;;5066488;28;20494;-76
2022/04/30 08:00:28;;;;;;;14.70;10.52;;;15.50;99.90;;;;;;5063570;28;20024;-76
2022/04/30 08:02:55;;;;;;;17.92;12.65;;;15.20;99.90;;;;;;5057226;28;20024;-76
2022/04/30 08:05:22;;;;;;;17.33;11.75;;;15.20;99.90;;;;;;5072050;28;20498;-76
2022/04/30 08:07:48;;;;;;;15.27;11.52;;;15.50;99.90;;;;;;5072148;28;20020;-76
2022/04/30 08:10:14;;;;;;;16.83;11.60;;;15.40;99.90;;;;;;5065389;28;20032;-76
2022/04/30 08:12:40;;;;;;;16.35;11.60;;;15.60;99.90;;;;;;5062066;28;20039;-75
2022/04/30 08:15:06;;;;;;;15.20;11.07;;;15.50;99.90;;;;;;5081777;28;20033;-76
2022/04/30 08:17:32;;;;;;;15.30;10.38;;;15.80;99.90;;;;;;5085215;28;20099;-76
2022/04/30 08:19:57;;;;;;;17.65;10.90;;;15.80;99.90;;;;;;5073859;28;20095;-76
2022/04/30 08:22:23;;;;;;;16.95;11.55;;;15.80;99.90;;;;;;5078875;28;20554;-76
2022/04/30 08:24:49;;;;;;;14.40;11.27;;;15.60;99.90;;;;;;5088028;28;20032;-75
2022/04/30 08:27:15;;;;;;;14.77;10.90;;;15.90;99.90;;;;;;5079619;28;20036;-75
2022/04/30 08:29:41;;;;;;;16.35;11.07;;;15.90;99.90;;;;;;5080719;28;20401;-76
2022/04/30 08:32:07;;;;;;;13.40;11.00;;;16.00;99.90;;;;;;5089049;28;20047;-75
2022/04/30 08:34:33;;;;;;;15.57;10.15;;;16.20;99.90;;;;;;5086722;28;20031;-75
2022/04/30 08:36:59;;;;;;;13.73;10.50;;;16.30;99.90;;;;;;5079050;28;20022;-76
2022/04/30 08:39:24;;;;;;;12.48;9.95;;;16.30;99.90;;;;;;5087275;28;20025;-76
2022/04/30 08:41:50;;;;;;;13.43;10.18;;;16.50;99.90;;;;;;5075669;28;20505;-76
2022/04/30 08:44:18;;;;;;;14.73;10.05;;;16.20;99.90;;;;;;5081570;28;20064;-75
2022/04/30 08:46:45;;;;;;;16.15;11.52;;;16.40;99.90;;;;;;5083061;28;20024;-76
2022/04/30 08:49:11;;;;;;;15.65;11.93;;;16.50;99.90;;;;;;5079743;28;20032;-75
2022/04/30 08:51:37;;;;;;;16.42;11.93;;;16.40;99.90;;;;;;5079577;28;20024;-76
2022/04/30 08:54:04;;;;;;;15.40;12.27;;;16.50;99.90;;;;;;5083231;28;20100;-75
2022/04/30 08:56:29;;;;;;;14.25;10.77;;;17.00;99.90;;;;;;5085306;28;20048;-75
2022/04/30 08:59:02;;;;;;;15.90;12.65;;;17.10;99.90;;;;;;5085421;28;20020;-75
2022/04/30 09:01:28;;;;;;;14.77;11.30;;;17.30;99.90;;;;;;5086590;28;20028;-76
2022/04/30 09:03:56;;;;;;;18.85;11.10;;;17.70;99.90;;;;;;5071959;28;20028;-75
2022/04/30 09:06:22;;;;;;;13.73;10.77;;;17.80;99.90;;;;;;5075558;28;20481;-75
2022/04/30 09:08:49;;;;;;;14.45;10.77;;;17.50;99.90;;;;;;5063711;28;20025;-76
2022/04/30 09:11:15;;;;;;;12.93;10.85;;;17.10;99.90;;;;;;5085386;28;20028;-76
2022/04/30 09:13:45;;;;;;;13.85;10.30;;;17.40;99.90;;;;;;5077661;28;20017;-75
2022/04/30 09:16:19;;;;;;;17.00;11.52;;;17.60;99.90;;;;;;5075369;28;20024;-75
2022/04/30 09:18:44;;;;;;;14.57;10.93;;;17.10;99.90;;;;;;5087790;28;20016;-75
2022/04/30 09:21:14;;;;;;;14.68;11.68;;;17.60;99.90;;;;;;5060200;28;20142;-75
2022/04/30 09:23:39;;;;;;;12.75;11.10;;;18.50;99.90;;;;;;5085147;28;20046;-75
2022/04/30 09:26:06;;;;;;;12.60;9.55;;;18.70;99.90;;;;;;5078349;28;20497;-75
2022/04/30 09:28:34;;;;;;;16.45;11.02;;;18.60;99.90;;;;;;5083155;28;20020;-75
2022/04/30 09:31:17;;;;;;;16.67;11.82;;;18.10;99.90;;;;;;5076171;28;20184;-76
2022/04/30 09:33:48;;;;;;;15.20;11.20;;;18.10;99.90;;;;;;5062916;28;20028;-75
2022/04/30 09:38:59;;;;;;;15.02;11.02;;;18.40;99.90;;;;;;5085864;28;20031;-76
2022/04/30 09:41:26;;;;;;;13.52;10.30;;;18.80;99.90;;;;;;5069008;28;20490;-75
2022/04/30 09:44:04;;;;;;;13.57;11.43;;;19.00;99.90;;;;;;5083028;28;20028;-75
2022/04/30 09:46:33;;;;;;;16.13;11.85;;;18.80;99.90;;;;;;5084928;28;20020;-75
2022/04/30 09:54:29;;;;;;;15.45;11.60;;;18.90;99.90;;;;;;5060064;28;20031;-76
2022/04/30 09:56:59;;;;;;;14.48;12.35;;;18.90;99.90;;;;;;5076541;28;20434;-76
2022/04/30 09:59:26;;;;;;;16.48;12.02;;;19.10;99.90;;;;;;5077455;28;20030;-76
2022/04/30 10:01:53;;;;;;;16.02;11.45;;;19.30;99.90;;;;;;5070329;28;20013;-76
2022/04/30 10:04:19;;;;;;;16.38;11.93;;;19.80;99.90;;;;;;5072537;28;20162;-76
2022/04/30 10:06:48;;;;;;;12.73;10.05;;;20.60;99.90;;;;;;5074606;28;20038;-75
2022/04/30 10:09:22;;;;;;;21.92;10.70;;;20.50;99.90;;;;;;5061810;28;20032;-76
2022/04/30 10:11:56;;;;;;;12.45;10.00;;;20.20;99.90;;;;;;5083192;28;20036;-76
2022/04/30 10:14:57;;;;;;;14.48;10.10;;;19.90;99.90;;;;;;5077460;28;20024;-75
2022/04/30 10:17:25;;;;;;;13.98;8.52;;;20.00;99.90;;;;;;5086918;28;20028;-76
2022/04/30 10:20:33;;;;;;;10.35;8.63;;;20.10;99.90;;;;;;5073048;28;20033;-76
2022/04/30 10:23:00;;;;;;;10.90;8.68;;;20.30;99.90;;;;;;5069513;28;20028;-76
2022/04/30 10:25:37;;;;;;;11.52;8.13;;;20.80;99.90;;;;;;5080517;28;20056;-76
2022/04/30 10:28:16;;;;;;;12.43;9.25;;;21.10;99.50;;;;;;5078970;28;20028;-76
2022/04/30 10:30:57;;;;;;;12.10;9.10;;;20.50;99.90;;;;;;5079193;28;20489;-76
2022/04/30 10:33:23;;;;;;;14.90;8.75;;;20.20;99.90;;;;;;5064796;28;20039;-76
2022/04/30 10:35:49;;;;;;;11.02;8.93;;;20.40;99.90;;;;;;5069129;28;20029;-76
2022/04/30 10:38:20;;;;;;;10.20;8.32;;;20.50;99.90;;;;;;5076117;28;20055;-76
2022/04/30 10:40:56;;;;;;;12.40;8.20;;;21.00;99.30;;;;;;5070935;28;20021;-77
2022/04/30 10:43:26;;;;;;;8.98;8.00;;;21.10;98.90;;;;;;5071649;28;20331;-76
2022/04/30 10:45:56;;;;;;;11.98;9.20;;;21.10;99.10;;;;;;5075498;28;20308;-76
2022/04/30 10:48:22;;;;;;;13.18;8.65;;;20.50;99.60;;;;;;5078110;28;20020;-76
2022/04/30 10:50:56;;;;;;;11.65;8.80;;;20.60;99.90;;;;;;5083664;28;20024;-76
2022/04/30 10:53:27;;;;;;;11.70;9.38;;;20.50;99.90;;;;;;5083737;28;20035;-76
2022/04/30 10:55:52;;;;;;;;;;;20.30;99.90;;;;;;5067861;28;20044;-76
2022/04/30 10:58:25;;;;;;;10.32;8.63;;;20.20;99.90;;;;;;5071853;28;20678;-76
2022/04/30 11:00:52;;;;;;;10.60;8.07;;;20.40;99.90;;;;;;5070189;28;20028;-76
2022/04/30 11:03:18;;;;;;;13.05;8.75;;;20.50;99.90;;;;;;5076625;28;20059;-76
2022/04/30 11:05:48;;;;;;;9.23;7.40;;;20.30;99.90;;;;;;5074106;28;20036;-74
2022/04/30 11:08:14;;;;;;;10.73;7.40;;;20.30;99.90;;;;;;5067937;28;20070;-76
2022/04/30 11:10:52;;;;;;;10.35;7.60;;;20.20;99.90;;;;;;5070332;28;20028;-76
2022/04/30 11:13:18;;;;;;;10.43;8.13;;;20.50;99.50;;;;;;5072248;28;20040;-76
2022/04/30 11:15:43;;;;;;;11.65;8.20;;;20.60;99.30;;;;;;5077137;28;20020;-76
2022/04/30 11:18:10;;;;;;;10.52;8.27;;;20.60;99.90;;;;;;5054560;28;20029;-76
2022/04/30 11:20:36;;;;;;;11.68;8.25;;;20.40;99.70;;;;;;5077266;28;20226;-76
2022/04/30 11:23:01;;;;;;;11.20;8.60;;;20.50;99.80;;;;;;5075166;28;20542;-76
2022/04/30 11:25:38;;;;;;;14.88;9.15;;;20.20;99.70;;;;;;5071645;28;20024;-76
2022/04/30 11:28:09;;;;;;;11.65;8.50;;;20.20;99.90;;;;;;5075323;28;20063;-76
2022/04/30 11:30:39;;;;;;;12.70;8.82;;;20.50;99.60;;;;;;5078601;28;20119;-76
2022/04/30 11:33:06;;;;;;;15.38;8.77;;;20.60;99.40;;;;;;5077209;28;20035;-76
2022/04/30 11:35:32;;;;;;;11.23;8.23;;;20.70;99.00;;;;;;5084493;28;20034;-76
2022/04/30 11:37:58;;;;;;;13.63;8.45;;;20.60;99.00;;;;;;5077199;28;20032;-76
2022/04/30 11:40:25;;;;;;;11.52;7.13;;;20.90;98.70;;;;;;5067390;28;20037;-76
2022/04/30 11:42:59;;;;;;;9.95;8.02;;;21.00;99.10;;;;;;5075810;28;20049;-76
2022/04/30 11:45:29;;;;;;;9.13;7.30;;;20.90;98.30;;;;;;5065643;28;20020;-76
2022/04/30 11:47:59;;;;;;;8.77;7.13;;;20.70;99.50;;;;;;5077342;28;20051;-76
2022/04/30 11:50:28;;;;;;;9.05;7.28;;;21.20;98.50;;;;;;5064747;28;20065;-76
2022/04/30 11:52:54;;;;;;;10.95;7.25;;;21.20;98.80;;;;;;5083723;28;20059;-76
2022/04/30 11:55:21;;;;;;;9.85;7.30;;;21.20;98.20;;;;;;5080106;28;20028;-76
2022/04/30 11:57:47;;;;;;;7.40;6.47;;;21.40;97.30;;;;;;5074034;28;23462;-76
2022/04/30 12:00:16;;;;;;;9.88;6.82;;;21.50;96.80;;;;;;5061865;28;20025;-76
2022/04/30 12:02:46;;;;;;;7.93;6.60;;;21.70;97.40;;;;;;5079689;28;20565;-76
2022/04/30 12:05:12;;;;;;;11.05;6.55;;;21.80;97.70;;;;;;5071830;28;20139;-76
2022/04/30 12:07:48;;;;;;;10.05;6.68;;;21.70;97.40;;;;;;5072573;28;20046;-76
2022/04/30 12:10:20;;;;;;;7.85;5.90;;;21.60;95.90;;;;;;5073000;28;20075;-76
2022/04/30 12:12:47;;;;;;;7.38;6.15;;;21.50;95.70;;;;;;5080912;28;20036;-76
2022/04/30 12:15:19;;;;;;;7.97;6.28;;;21.20;96.60;;;;;;5083961;28;20020;-76
2022/04/30 12:17:45;;;;;;;6.68;5.82;;;21.50;95.90;;;;;;5076078;28;20017;-76
2022/04/30 12:26:03;;;;;;;4.93;4.43;;;21.80;94.80;;;;;;5073489;28;20465;-76
2022/04/30 12:28:30;;;;;;;5.07;4.57;;;21.70;94.60;;;;;;5071831;28;20028;-75
2022/04/30 12:30:56;;;;;;;5.18;4.38;;;21.60;94.30;;;;;;5068173;28;20040;-76
2022/04/30 12:33:23;;;;;;;6.97;5.05;;;21.90;95.20;;;;;;5066420;28;20089;-76
2022/04/30 12:35:57;;;;;;;6.05;4.70;;;21.80;94.50;;;;;;5079574;28;20081;-75
2022/04/30 12:38:22;;;;;;;5.40;4.55;;;21.60;93.90;;;;;;5073170;28;20020;-76
2022/04/30 12:40:50;;;;;;;5.68;4.78;;;21.70;93.80;;;;;;5074590;28;20388;-76
2022/04/30 12:43:17;;;;;;;5.57;4.63;;;21.70;94.20;;;;;;5069752;28;20092;-76
2022/04/30 12:45:43;;;;;;;4.82;3.97;;;21.50;93.80;;;;;;5078630;28;20035;-76
2022/04/30 12:48:09;;;;;;;5.40;4.05;;;21.60;94.40;;;;;;5067064;28;20025;-76
2022/04/30 12:50:36;;;;;;;4.70;4.05;;;21.90;93.90;;;;;;5086907;28;20032;-76
2022/04/30 12:53:02;;;;;;;7.93;4.40;;;21.70;93.50;;;;;;5063436;28;20017;-76
2022/04/30 12:55:31;;;;;;;4.75;3.88;;;21.60;93.80;;;;;;5070597;28;20028;-76
2022/04/30 12:57:57;;;;;;;4.70;4.20;;;21.60;94.20;;;;;;5067288;28;20047;-76
2022/04/30 13:00:22;;;;;;;6.07;4.88;;;21.60;94.30;;;;;;5066137;28;20525;-76
2022/04/30 13:02:48;;;;;;;6.35;5.28;;;21.90;94.70;;;;;;5084227;28;20505;-75
2022/04/30 13:05:15;;;;;;;7.50;5.78;;;21.90;94.00;;;;;;5087253;28;20103;-76
2022/04/30 13:07:44;;;;;;;58.22;9.77;;;22.20;92.90;;;;;;5074287;28;20024;-76
2022/04/30 13:15:40;;;;;;;7.93;5.32;;;22.40;92.90;;;;;;5061751;28;20062;-76
2022/04/30 13:18:07;;;;;;;6.22;4.85;;;22.30;93.40;;;;;;5056587;28;20053;-76
2022/04/30 13:20:34;;;;;;;7.05;5.53;;;22.50;93.30;;;;;;5073175;28;20017;-76
2022/04/30 13:22:59;;;;;;;6.95;5.53;;;22.40;93.10;;;;;;5079595;28;20093;-77
2022/04/30 13:25:27;;;;;;;5.47;4.70;;;22.00;94.20;;;;;;5073280;28;20489;-77
2022/04/30 13:27:53;;;;;;;5.47;4.78;;;22.10;93.70;;;;;;5078425;28;20019;-76
2022/04/30 13:30:19;;;;;;;6.05;4.88;;;22.00;95.10;;;;;;5081804;28;20047;-76
2022/04/30 13:32:46;;;;;;;6.18;4.90;;;22.20;94.60;;;;;;5087847;28;20060;-76